sensor_id;sensor_type;location;lat;lon;timestamp;pressure;altitude;pressure_sealevel;temperature;humidity
57412;BME280;43247;52.828;-8.980;2024-01-15T00:00:48;101829.45;;;2.65;87.37
57412;BME280;43247;52.828;-8.980;2024-01-15T00:01:47;101830.66;;;2.66;87.35
57412;BME280;43247;52.828;-8.980;2024-01-15T00:02:47;101829.52;;;2.68;87.29
57412;BME280;43247;52.828;-8.980;2024-01-15T00:03:48;101827.73;;;2.67;87.30
57412;BME280;43247;52.828;-8.980;2024-01-15T00:04:49;101824.96;;;2.66;87.31
57412;BME280;43247;52.828;-8.980;2024-01-15T00:05:49;101825.66;;;2.64;87.37
57412;BME280;43247;52.828;-8.980;2024-01-15T00:06:50;101824.28;;;2.64;87.38
57412;BME280;43247;52.828;-8.980;2024-01-15T00:07:50;101822.96;;;2.62;87.46
57412;BME280;43247;52.828;-8.980;2024-01-15T00:08:51;101822.76;;;2.62;87.45
57412;BME280;43247;52.828;-8.980;2024-01-15T00:09:51;101823.11;;;2.61;87.48
57412;BME280;43247;52.828;-8.980;2024-01-15T00:10:52;101823.83;;;2.60;87.53
57412;BME280;43247;52.828;-8.980;2024-01-15T00:11:52;101826.44;;;2.59;87.52
57412;BME280;43247;52.828;-8.980;2024-01-15T00:12:52;101827.94;;;2.58;87.53
57412;BME280;43247;52.828;-8.980;2024-01-15T00:13:53;101830.03;;;2.58;87.51
57412;BME280;43247;52.828;-8.980;2024-01-15T00:14:54;101827.93;;;2.57;87.53
57412;BME280;43247;52.828;-8.980;2024-01-15T00:15:54;101826.31;;;2.56;87.51
57412;BME280;43247;52.828;-8.980;2024-01-15T00:16:54;101828.84;;;2.55;87.49
57412;BME280;43247;52.828;-8.980;2024-01-15T00:17:55;101827.42;;;2.55;87.49
57412;BME280;43247;52.828;-8.980;2024-01-15T00:18:55;101825.41;;;2.54;87.49
57412;BME280;43247;52.828;-8.980;2024-01-15T00:19:55;101822.50;;;2.54;87.46
57412;BME280;43247;52.828;-8.980;2024-01-15T00:20:55;101820.35;;;2.53;87.49
57412;BME280;43247;52.828;-8.980;2024-01-15T00:21:56;101818.03;;;2.52;87.47
57412;BME280;43247;52.828;-8.980;2024-01-15T00:22:57;101818.65;;;2.52;87.43
57412;BME280;43247;52.828;-8.980;2024-01-15T00:23:57;101820.27;;;2.50;87.46
57412;BME280;43247;52.828;-8.980;2024-01-15T00:24:58;101823.05;;;2.51;87.41
57412;BME280;43247;52.828;-8.980;2024-01-15T00:25:58;101820.65;;;2.51;87.36
57412;BME280;43247;52.828;-8.980;2024-01-15T00:26:59;101817.67;;;2.49;87.40
57412;BME280;43247;52.828;-8.980;2024-01-15T00:27:59;101819.85;;;2.48;87.43
57412;BME280;43247;52.828;-8.980;2024-01-15T00:28:59;101820.31;;;2.47;87.46
57412;BME280;43247;52.828;-8.980;2024-01-15T00:29:59;101817.87;;;2.47;87.42
57412;BME280;43247;52.828;-8.980;2024-01-15T00:30:59;101819.59;;;2.48;87.34
57412;BME280;43247;52.828;-8.980;2024-01-15T00:32:00;101820.06;;;2.48;87.35
57412;BME280;43247;52.828;-8.980;2024-01-15T00:33:00;101818.75;;;2.48;87.30
57412;BME280;43247;52.828;-8.980;2024-01-15T00:34:00;101817.97;;;2.46;87.35
57412;BME280;43247;52.828;-8.980;2024-01-15T00:35:01;101817.67;;;2.47;87.34
57412;BME280;43247;52.828;-8.980;2024-01-15T00:36:01;101817.74;;;2.45;87.38
57412;BME280;43247;52.828;-8.980;2024-01-15T00:37:01;101816.32;;;2.45;87.38
57412;BME280;43247;52.828;-8.980;2024-01-15T00:38:01;101814.82;;;2.44;87.39
57412;BME280;43247;52.828;-8.980;2024-01-15T00:39:02;101816.81;;;2.44;87.39
57412;BME280;43247;52.828;-8.980;2024-01-15T00:40:05;101814.57;;;2.46;87.32
57412;BME280;43247;52.828;-8.980;2024-01-15T00:41:05;101813.33;;;2.44;87.36
57412;BME280;43247;52.828;-8.980;2024-01-15T00:42:06;101814.74;;;2.42;87.42
57412;BME280;43247;52.828;-8.980;2024-01-15T00:43:06;101814.58;;;2.44;87.34
57412;BME280;43247;52.828;-8.980;2024-01-15T00:44:06;101812.02;;;2.42;87.42
57412;BME280;43247;52.828;-8.980;2024-01-15T00:45:06;101813.40;;;2.42;87.42
57412;BME280;43247;52.828;-8.980;2024-01-15T00:46:07;101815.39;;;2.41;87.46
57412;BME280;43247;52.828;-8.980;2024-01-15T00:47:07;101816.00;;;2.41;87.47
57412;BME280;43247;52.828;-8.980;2024-01-15T00:48:07;101815.23;;;2.40;87.52
57412;BME280;43247;52.828;-8.980;2024-01-15T00:49:08;101816.16;;;2.41;87.52
57412;BME280;43247;52.828;-8.980;2024-01-15T00:50:09;101814.17;;;2.41;87.47
57412;BME280;43247;52.828;-8.980;2024-01-15T00:51:09;101812.75;;;2.41;87.49
57412;BME280;43247;52.828;-8.980;2024-01-15T00:52:09;101811.17;;;2.41;87.49
57412;BME280;43247;52.828;-8.980;2024-01-15T00:53:09;101804.84;;;2.41;87.49
57412;BME280;43247;52.828;-8.980;2024-01-15T00:54:09;101802.62;;;2.40;87.52
57412;BME280;43247;52.828;-8.980;2024-01-15T00:55:10;101801.83;;;2.40;87.52
57412;BME280;43247;52.828;-8.980;2024-01-15T00:56:10;101800.24;;;2.40;87.55
57412;BME280;43247;52.828;-8.980;2024-01-15T00:57:11;101799.76;;;2.42;87.53
57412;BME280;43247;52.828;-8.980;2024-01-15T00:58:11;101798.68;;;2.41;87.53
57412;BME280;43247;52.828;-8.980;2024-01-15T00:59:11;101797.41;;;2.41;87.56
57412;BME280;43247;52.828;-8.980;2024-01-15T01:00:12;101795.81;;;2.40;87.55
57412;BME280;43247;52.828;-8.980;2024-01-15T01:01:12;101793.35;;;2.41;87.58
57412;BME280;43247;52.828;-8.980;2024-01-15T01:02:12;101792.40;;;2.41;87.57
57412;BME280;43247;52.828;-8.980;2024-01-15T01:03:12;101792.47;;;2.40;87.61
57412;BME280;43247;52.828;-8.980;2024-01-15T01:04:13;101789.48;;;2.41;87.64
57412;BME280;43247;52.828;-8.980;2024-01-15T01:05:13;101789.38;;;2.39;87.69
57412;BME280;43247;52.828;-8.980;2024-01-15T01:06:14;101786.66;;;2.40;87.70
57412;BME280;43247;52.828;-8.980;2024-01-15T01:07:15;101784.05;;;2.40;87.72
57412;BME280;43247;52.828;-8.980;2024-01-15T01:08:15;101781.06;;;2.39;87.74
57412;BME280;43247;52.828;-8.980;2024-01-15T01:09:15;101781.00;;;2.40;87.71
57412;BME280;43247;52.828;-8.980;2024-01-15T01:10:16;101779.55;;;2.40;87.73
57412;BME280;43247;52.828;-8.980;2024-01-15T01:11:16;101777.10;;;2.40;87.73
57412;BME280;43247;52.828;-8.980;2024-01-15T01:12:16;101775.70;;;2.40;87.71
57412;BME280;43247;52.828;-8.980;2024-01-15T01:13:16;101774.95;;;2.40;87.73
57412;BME280;43247;52.828;-8.980;2024-01-15T01:14:17;101771.94;;;2.39;87.72
57412;BME280;43247;52.828;-8.980;2024-01-15T01:15:18;101774.90;;;2.40;87.68
57412;BME280;43247;52.828;-8.980;2024-01-15T01:16:18;101775.16;;;2.39;87.72
57412;BME280;43247;52.828;-8.980;2024-01-15T01:17:19;101774.45;;;2.40;87.71
57412;BME280;43247;52.828;-8.980;2024-01-15T01:18:19;101768.78;;;2.39;87.73
57412;BME280;43247;52.828;-8.980;2024-01-15T01:19:19;101768.27;;;2.40;87.71
57412;BME280;43247;52.828;-8.980;2024-01-15T01:20:19;101767.32;;;2.40;87.71
57412;BME280;43247;52.828;-8.980;2024-01-15T01:21:19;101766.50;;;2.40;87.74
57412;BME280;43247;52.828;-8.980;2024-01-15T01:22:20;101765.66;;;2.40;87.75
57412;BME280;43247;52.828;-8.980;2024-01-15T01:23:20;101762.33;;;2.39;87.77
57412;BME280;43247;52.828;-8.980;2024-01-15T01:24:20;101763.91;;;2.40;87.76
57412;BME280;43247;52.828;-8.980;2024-01-15T01:25:20;101763.10;;;2.39;87.79
57412;BME280;43247;52.828;-8.980;2024-01-15T01:26:20;101763.40;;;2.40;87.76
57412;BME280;43247;52.828;-8.980;2024-01-15T01:27:21;101764.09;;;2.40;87.77
57412;BME280;43247;52.828;-8.980;2024-01-15T01:28:21;101765.23;;;2.39;87.79
57412;BME280;43247;52.828;-8.980;2024-01-15T01:29:21;101763.83;;;2.39;87.80
57412;BME280;43247;52.828;-8.980;2024-01-15T01:30:21;101762.79;;;2.39;87.81
57412;BME280;43247;52.828;-8.980;2024-01-15T01:31:22;101763.53;;;2.39;87.79
57412;BME280;43247;52.828;-8.980;2024-01-15T01:32:22;101758.26;;;2.39;87.80
57412;BME280;43247;52.828;-8.980;2024-01-15T01:33:22;101758.32;;;2.39;87.82
57412;BME280;43247;52.828;-8.980;2024-01-15T01:34:23;101760.44;;;2.39;87.83
57412;BME280;43247;52.828;-8.980;2024-01-15T01:35:23;101758.21;;;2.39;87.84
57412;BME280;43247;52.828;-8.980;2024-01-15T01:36:23;101757.83;;;2.39;87.82
57412;BME280;43247;52.828;-8.980;2024-01-15T01:37:24;101760.31;;;2.39;87.84
57412;BME280;43247;52.828;-8.980;2024-01-15T01:38:24;101760.74;;;2.39;87.83
57412;BME280;43247;52.828;-8.980;2024-01-15T01:39:24;101764.35;;;2.39;87.84
57412;BME280;43247;52.828;-8.980;2024-01-15T01:40:25;101761.90;;;2.39;87.88
57412;BME280;43247;52.828;-8.980;2024-01-15T01:41:25;101763.29;;;2.39;87.84
57412;BME280;43247;52.828;-8.980;2024-01-15T01:42:25;101762.13;;;2.39;87.87
57412;BME280;43247;52.828;-8.980;2024-01-15T01:43:25;101758.79;;;2.38;87.90
57412;BME280;43247;52.828;-8.980;2024-01-15T01:44:25;101758.20;;;2.39;87.88
57412;BME280;43247;52.828;-8.980;2024-01-15T01:45:26;101757.44;;;2.40;87.89
57412;BME280;43247;52.828;-8.980;2024-01-15T01:46:27;101757.51;;;2.40;87.88
57412;BME280;43247;52.828;-8.980;2024-01-15T01:47:27;101758.25;;;2.40;87.89
57412;BME280;43247;52.828;-8.980;2024-01-15T01:48:27;101752.68;;;2.40;87.89
57412;BME280;43247;52.828;-8.980;2024-01-15T01:49:28;101751.84;;;2.39;87.91
57412;BME280;43247;52.828;-8.980;2024-01-15T01:50:29;101755.32;;;2.39;87.92
57412;BME280;43247;52.828;-8.980;2024-01-15T01:51:28;101755.34;;;2.39;87.94
57412;BME280;43247;52.828;-8.980;2024-01-15T01:52:28;101751.28;;;2.39;87.96
57412;BME280;43247;52.828;-8.980;2024-01-15T01:53:29;101750.19;;;2.39;87.96
57412;BME280;43247;52.828;-8.980;2024-01-15T01:54:30;101747.40;;;2.40;87.93
57412;BME280;43247;52.828;-8.980;2024-01-15T01:55:29;101748.05;;;2.40;87.91
57412;BME280;43247;52.828;-8.980;2024-01-15T01:56:29;101742.94;;;2.40;87.91
57412;BME280;43247;52.828;-8.980;2024-01-15T01:57:30;101746.69;;;2.40;87.93
57412;BME280;43247;52.828;-8.980;2024-01-15T01:58:30;101748.67;;;2.40;87.91
57412;BME280;43247;52.828;-8.980;2024-01-15T01:59:30;101746.76;;;2.39;87.96
57412;BME280;43247;52.828;-8.980;2024-01-15T02:00:30;101747.81;;;2.39;87.96
57412;BME280;43247;52.828;-8.980;2024-01-15T02:01:31;101748.03;;;2.39;87.97
57412;BME280;43247;52.828;-8.980;2024-01-15T02:02:31;101750.26;;;2.40;87.92
57412;BME280;43247;52.828;-8.980;2024-01-15T02:03:31;101753.00;;;2.40;87.90
57412;BME280;43247;52.828;-8.980;2024-01-15T02:04:32;101753.33;;;2.39;88.18
57412;BME280;43247;52.828;-8.980;2024-01-15T02:05:32;101750.85;;;2.39;88.27
57412;BME280;43247;52.828;-8.980;2024-01-15T02:06:32;101749.91;;;2.38;88.40
57412;BME280;43247;52.828;-8.980;2024-01-15T02:07:34;101750.22;;;2.39;88.40
57412;BME280;43247;52.828;-8.980;2024-01-15T02:08:33;101749.82;;;2.39;88.40
57412;BME280;43247;52.828;-8.980;2024-01-15T02:09:32;101746.63;;;2.38;88.40
57412;BME280;43247;52.828;-8.980;2024-01-15T02:10:33;101742.27;;;2.37;88.41
57412;BME280;43247;52.828;-8.980;2024-01-15T02:11:33;101742.37;;;2.38;88.32
57412;BME280;43247;52.828;-8.980;2024-01-15T02:12:33;101741.42;;;2.38;88.31
57412;BME280;43247;52.828;-8.980;2024-01-15T02:13:34;101738.52;;;2.38;88.26
57412;BME280;43247;52.828;-8.980;2024-01-15T02:14:34;101738.59;;;2.40;88.14
57412;BME280;43247;52.828;-8.980;2024-01-15T02:15:34;101738.34;;;2.40;88.08
57412;BME280;43247;52.828;-8.980;2024-01-15T02:16:35;101736.40;;;2.38;88.05
57412;BME280;43247;52.828;-8.980;2024-01-15T02:17:35;101735.14;;;2.39;88.00
57412;BME280;43247;52.828;-8.980;2024-01-15T02:18:40;101735.07;;;2.36;87.96
57412;BME280;43247;52.828;-8.980;2024-01-15T02:19:35;101734.79;;;2.36;87.90
57412;BME280;43247;52.828;-8.980;2024-01-15T02:20:36;101735.00;;;2.35;87.84
57412;BME280;43247;52.828;-8.980;2024-01-15T02:21:36;101734.24;;;2.34;87.78
57412;BME280;43247;52.828;-8.980;2024-01-15T02:22:36;101736.74;;;2.33;87.69
57412;BME280;43247;52.828;-8.980;2024-01-15T02:23:37;101740.96;;;2.33;87.55
57412;BME280;43247;52.828;-8.980;2024-01-15T02:24:37;101739.35;;;2.33;87.39
57412;BME280;43247;52.828;-8.980;2024-01-15T02:25:39;101737.45;;;2.32;87.26
57412;BME280;43247;52.828;-8.980;2024-01-15T02:26:38;101745.20;;;2.31;87.12
57412;BME280;43247;52.828;-8.980;2024-01-15T02:27:38;101749.29;;;2.28;87.05
57412;BME280;43247;52.828;-8.980;2024-01-15T02:28:38;101747.75;;;2.27;86.99
57412;BME280;43247;52.828;-8.980;2024-01-15T02:29:39;101750.25;;;2.27;86.86
57412;BME280;43247;52.828;-8.980;2024-01-15T02:30:40;101748.38;;;2.25;86.81
57412;BME280;43247;52.828;-8.980;2024-01-15T02:31:39;101746.46;;;2.25;86.69
57412;BME280;43247;52.828;-8.980;2024-01-15T02:32:39;101744.89;;;2.24;86.67
57412;BME280;43247;52.828;-8.980;2024-01-15T02:33:39;101743.55;;;2.21;86.65
57412;BME280;43247;52.828;-8.980;2024-01-15T02:34:39;101747.03;;;2.19;86.65
57412;BME280;43247;52.828;-8.980;2024-01-15T02:35:40;101745.39;;;2.19;86.61
57412;BME280;43247;52.828;-8.980;2024-01-15T02:36:40;101746.45;;;2.19;86.56
57412;BME280;43247;52.828;-8.980;2024-01-15T02:37:40;101745.99;;;2.19;86.54
57412;BME280;43247;52.828;-8.980;2024-01-15T02:38:41;101743.99;;;2.19;86.49
57412;BME280;43247;52.828;-8.980;2024-01-15T02:39:41;101743.81;;;2.18;86.54
57412;BME280;43247;52.828;-8.980;2024-01-15T02:40:41;101741.79;;;2.17;86.55
57412;BME280;43247;52.828;-8.980;2024-01-15T02:41:42;101739.32;;;2.17;86.59
57412;BME280;43247;52.828;-8.980;2024-01-15T02:42:42;101741.00;;;2.16;86.62
57412;BME280;43247;52.828;-8.980;2024-01-15T02:43:42;101741.49;;;2.14;86.69
57412;BME280;43247;52.828;-8.980;2024-01-15T02:44:43;101742.21;;;2.13;86.66
57412;BME280;43247;52.828;-8.980;2024-01-15T02:45:43;101741.09;;;2.13;86.66
57412;BME280;43247;52.828;-8.980;2024-01-15T02:46:43;101742.76;;;2.12;86.63
57412;BME280;43247;52.828;-8.980;2024-01-15T02:47:43;101741.23;;;2.12;86.60
57412;BME280;43247;52.828;-8.980;2024-01-15T02:48:44;101741.52;;;2.11;86.57
57412;BME280;43247;52.828;-8.980;2024-01-15T02:49:44;101740.11;;;2.09;86.56
57412;BME280;43247;52.828;-8.980;2024-01-15T02:50:45;101738.28;;;2.09;86.54
57412;BME280;43247;52.828;-8.980;2024-01-15T02:51:45;101734.82;;;2.08;86.49
57412;BME280;43247;52.828;-8.980;2024-01-15T02:52:45;101736.76;;;2.08;86.39
57412;BME280;43247;52.828;-8.980;2024-01-15T02:53:45;101734.28;;;2.06;86.38
57412;BME280;43247;52.828;-8.980;2024-01-15T02:54:46;101732.73;;;2.06;86.30
57412;BME280;43247;52.828;-8.980;2024-01-15T02:55:46;101729.12;;;2.04;86.28
57412;BME280;43247;52.828;-8.980;2024-01-15T02:56:47;101729.86;;;2.04;86.16
57412;BME280;43247;52.828;-8.980;2024-01-15T02:57:47;101729.05;;;2.02;86.12
57412;BME280;43247;52.828;-8.980;2024-01-15T02:58:47;101727.11;;;2.03;86.00
57412;BME280;43247;52.828;-8.980;2024-01-15T02:59:48;101730.35;;;2.00;85.95
57412;BME280;43247;52.828;-8.980;2024-01-15T03:00:48;101730.13;;;1.99;85.85
57412;BME280;43247;52.828;-8.980;2024-01-15T03:01:48;101730.33;;;1.98;85.82
57412;BME280;43247;52.828;-8.980;2024-01-15T03:02:50;101731.35;;;1.96;85.72
57412;BME280;43247;52.828;-8.980;2024-01-15T03:03:49;101730.64;;;1.96;85.63
57412;BME280;43247;52.828;-8.980;2024-01-15T03:04:49;101733.02;;;1.95;85.58
57412;BME280;43247;52.828;-8.980;2024-01-15T03:05:49;101732.09;;;1.94;85.47
57412;BME280;43247;52.828;-8.980;2024-01-15T03:06:49;101729.82;;;1.92;85.42
57412;BME280;43247;52.828;-8.980;2024-01-15T03:07:50;101727.45;;;1.92;85.33
57412;BME280;43247;52.828;-8.980;2024-01-15T03:08:50;101728.49;;;1.90;85.30
57412;BME280;43247;52.828;-8.980;2024-01-15T03:09:51;101729.33;;;1.89;85.25
57412;BME280;43247;52.828;-8.980;2024-01-15T03:10:51;101730.86;;;1.88;85.16
57412;BME280;43247;52.828;-8.980;2024-01-15T03:11:51;101729.72;;;1.88;85.06
57412;BME280;43247;52.828;-8.980;2024-01-15T03:12:51;101728.31;;;1.86;85.00
57412;BME280;43247;52.828;-8.980;2024-01-15T03:13:51;101727.88;;;1.86;84.93
57412;BME280;43247;52.828;-8.980;2024-01-15T03:14:52;101728.54;;;1.85;84.88
57412;BME280;43247;52.828;-8.980;2024-01-15T03:15:52;101730.14;;;1.84;84.87
57412;BME280;43247;52.828;-8.980;2024-01-15T03:16:52;101731.01;;;1.84;84.88
57412;BME280;43247;52.828;-8.980;2024-01-15T03:17:52;101733.21;;;1.84;84.86
57412;BME280;43247;52.828;-8.980;2024-01-15T03:18:52;101732.35;;;1.83;84.87
57412;BME280;43247;52.828;-8.980;2024-01-15T03:19:53;101732.84;;;1.82;84.90
57412;BME280;43247;52.828;-8.980;2024-01-15T03:20:53;101732.03;;;1.81;84.93
57412;BME280;43247;52.828;-8.980;2024-01-15T03:21:53;101733.89;;;1.82;84.90
57412;BME280;43247;52.828;-8.980;2024-01-15T03:22:53;101732.01;;;1.81;84.92
57412;BME280;43247;52.828;-8.980;2024-01-15T03:23:54;101733.33;;;1.81;84.94
57412;BME280;43247;52.828;-8.980;2024-01-15T03:24:55;101733.02;;;1.81;84.97
57412;BME280;43247;52.828;-8.980;2024-01-15T03:25:55;101733.67;;;1.79;85.01
57412;BME280;43247;52.828;-8.980;2024-01-15T03:26:55;101735.99;;;1.80;84.99
57412;BME280;43247;52.828;-8.980;2024-01-15T03:27:55;101733.14;;;1.79;85.07
57412;BME280;43247;52.828;-8.980;2024-01-15T03:28:55;101732.53;;;1.79;85.08
57412;BME280;43247;52.828;-8.980;2024-01-15T03:29:56;101732.64;;;1.78;85.13
57412;BME280;43247;52.828;-8.980;2024-01-15T03:30:56;101732.41;;;1.78;85.13
57412;BME280;43247;52.828;-8.980;2024-01-15T03:31:56;101730.70;;;1.78;85.13
57412;BME280;43247;52.828;-8.980;2024-01-15T03:32:56;101729.83;;;1.78;85.16
57412;BME280;43247;52.828;-8.980;2024-01-15T03:33:58;101729.17;;;1.78;85.16
57412;BME280;43247;52.828;-8.980;2024-01-15T03:34:57;101727.46;;;1.78;85.17
57412;BME280;43247;52.828;-8.980;2024-01-15T03:35:57;101725.12;;;1.77;85.21
57412;BME280;43247;52.828;-8.980;2024-01-15T03:36:57;101726.23;;;1.77;85.22
57412;BME280;43247;52.828;-8.980;2024-01-15T03:37:57;101724.80;;;1.76;85.22
57412;BME280;43247;52.828;-8.980;2024-01-15T03:38:58;101723.06;;;1.76;85.22
57412;BME280;43247;52.828;-8.980;2024-01-15T03:39:58;101721.81;;;1.76;85.23
57412;BME280;43247;52.828;-8.980;2024-01-15T03:40:58;101722.58;;;1.76;85.22
57412;BME280;43247;52.828;-8.980;2024-01-15T03:41:59;101722.93;;;1.76;85.22
57412;BME280;43247;52.828;-8.980;2024-01-15T03:42:59;101725.22;;;1.75;85.24
57412;BME280;43247;52.828;-8.980;2024-01-15T03:43:59;101724.14;;;1.74;85.25
57412;BME280;43247;52.828;-8.980;2024-01-15T03:45:00;101725.42;;;1.73;85.28
57412;BME280;43247;52.828;-8.980;2024-01-15T03:46:01;101725.25;;;1.73;85.27
57412;BME280;43247;52.828;-8.980;2024-01-15T03:47:01;101725.89;;;1.73;85.25
57412;BME280;43247;52.828;-8.980;2024-01-15T03:48:02;101724.90;;;1.74;85.19
57412;BME280;43247;52.828;-8.980;2024-01-15T03:49:02;101724.03;;;1.73;85.16
57412;BME280;43247;52.828;-8.980;2024-01-15T03:50:04;101723.18;;;1.72;85.18
57412;BME280;43247;52.828;-8.980;2024-01-15T03:51:05;101722.24;;;1.71;85.15
57412;BME280;43247;52.828;-8.980;2024-01-15T03:52:05;101723.85;;;1.72;85.11
57412;BME280;43247;52.828;-8.980;2024-01-15T03:53:05;101720.58;;;1.72;85.09
57412;BME280;43247;52.828;-8.980;2024-01-15T03:54:06;101719.44;;;1.71;85.07
57412;BME280;43247;52.828;-8.980;2024-01-15T03:55:07;101718.96;;;1.74;85.13
57412;BME280;43247;52.828;-8.980;2024-01-15T03:56:07;101718.60;;;1.77;85.49
57412;BME280;43247;52.828;-8.980;2024-01-15T03:57:07;101719.12;;;1.82;85.40
57412;BME280;43247;52.828;-8.980;2024-01-15T03:58:08;101721.59;;;1.80;85.23
57412;BME280;43247;52.828;-8.980;2024-01-15T03:59:08;101720.20;;;1.76;85.07
57412;BME280;43247;52.828;-8.980;2024-01-15T04:00:10;101716.32;;;1.75;84.90
57412;BME280;43247;52.828;-8.980;2024-01-15T04:01:10;101716.22;;;1.78;84.70
57412;BME280;43247;52.828;-8.980;2024-01-15T04:02:10;101713.14;;;1.79;84.55
57412;BME280;43247;52.828;-8.980;2024-01-15T04:03:10;101713.29;;;1.83;84.39
57412;BME280;43247;52.828;-8.980;2024-01-15T04:04:10;101718.19;;;1.85;84.30
57412;BME280;43247;52.828;-8.980;2024-01-15T04:05:11;101715.80;;;1.85;84.27
57412;BME280;43247;52.828;-8.980;2024-01-15T04:06:11;101715.79;;;1.86;84.25
57412;BME280;43247;52.828;-8.980;2024-01-15T04:07:12;101715.48;;;1.91;84.03
57412;BME280;43247;52.828;-8.980;2024-01-15T04:08:13;101717.22;;;1.88;84.13
57412;BME280;43247;52.828;-8.980;2024-01-15T04:09:13;101719.49;;;1.91;84.06
57412;BME280;43247;52.828;-8.980;2024-01-15T04:10:13;101717.61;;;1.97;83.75
57412;BME280;43247;52.828;-8.980;2024-01-15T04:11:14;101715.15;;;2.02;83.47
57412;BME280;43247;52.828;-8.980;2024-01-15T04:12:14;101714.40;;;2.04;83.34
57412;BME280;43247;52.828;-8.980;2024-01-15T04:13:14;101714.85;;;2.03;83.30
57412;BME280;43247;52.828;-8.980;2024-01-15T04:14:15;101712.89;;;2.01;83.35
57412;BME280;43247;52.828;-8.980;2024-01-15T04:15:15;101710.87;;;2.00;83.36
57412;BME280;43247;52.828;-8.980;2024-01-15T04:16:15;101715.10;;;1.99;83.40
57412;BME280;43247;52.828;-8.980;2024-01-15T04:17:15;101716.99;;;1.98;83.29
57412;BME280;43247;52.828;-8.980;2024-01-15T04:18:16;101712.91;;;2.00;83.29
57412;BME280;43247;52.828;-8.980;2024-01-15T04:19:16;101710.45;;;2.05;83.08
57412;BME280;43247;52.828;-8.980;2024-01-15T04:20:16;101709.47;;;2.04;83.14
57412;BME280;43247;52.828;-8.980;2024-01-15T04:21:17;101710.78;;;2.03;83.19
57412;BME280;43247;52.828;-8.980;2024-01-15T04:22:17;101708.44;;;1.98;83.32
57412;BME280;43247;52.828;-8.980;2024-01-15T04:23:18;101706.99;;;1.99;83.27
57412;BME280;43247;52.828;-8.980;2024-01-15T04:24:19;101706.58;;;1.98;83.31
57412;BME280;43247;52.828;-8.980;2024-01-15T04:25:19;101705.44;;;2.00;83.31
57412;BME280;43247;52.828;-8.980;2024-01-15T04:26:19;101707.27;;;1.95;83.50
57412;BME280;43247;52.828;-8.980;2024-01-15T04:27:20;101707.45;;;1.87;83.70
57412;BME280;43247;52.828;-8.980;2024-01-15T04:28:20;101707.58;;;1.91;83.64
57412;BME280;43247;52.828;-8.980;2024-01-15T04:29:21;101708.69;;;1.83;83.85
57412;BME280;43247;52.828;-8.980;2024-01-15T04:30:21;101710.93;;;1.83;83.89
57412;BME280;43247;52.828;-8.980;2024-01-15T04:31:23;101711.50;;;1.81;83.98
57412;BME280;43247;52.828;-8.980;2024-01-15T04:32:22;101711.48;;;1.78;84.02
57412;BME280;43247;52.828;-8.980;2024-01-15T04:33:23;101708.35;;;1.77;84.03
57412;BME280;43247;52.828;-8.980;2024-01-15T04:34:23;101711.16;;;1.73;84.11
57412;BME280;43247;52.828;-8.980;2024-01-15T04:35:23;101710.35;;;1.72;84.15
57412;BME280;43247;52.828;-8.980;2024-01-15T04:36:23;101713.43;;;1.73;84.02
57412;BME280;43247;52.828;-8.980;2024-01-15T04:37:23;101714.20;;;1.82;83.89
57412;BME280;43247;52.828;-8.980;2024-01-15T04:38:24;101712.17;;;1.87;83.73
57412;BME280;43247;52.828;-8.980;2024-01-15T04:39:24;101713.78;;;1.83;83.66
57412;BME280;43247;52.828;-8.980;2024-01-15T04:40:25;101713.59;;;1.79;83.70
57412;BME280;43247;52.828;-8.980;2024-01-15T04:41:25;101713.50;;;1.78;83.71
57412;BME280;43247;52.828;-8.980;2024-01-15T04:42:26;101707.38;;;1.78;83.71
57412;BME280;43247;52.828;-8.980;2024-01-15T04:43:26;101704.43;;;1.79;83.61
57412;BME280;43247;52.828;-8.980;2024-01-15T04:44:28;101705.95;;;1.78;83.70
57412;BME280;43247;52.828;-8.980;2024-01-15T04:45:27;101702.86;;;1.80;83.66
57412;BME280;43247;52.828;-8.980;2024-01-15T04:46:28;101701.20;;;1.82;83.62
57412;BME280;43247;52.828;-8.980;2024-01-15T04:47:28;101696.86;;;1.83;83.57
57412;BME280;43247;52.828;-8.980;2024-01-15T04:48:29;101698.04;;;1.87;83.35
57412;BME280;43247;52.828;-8.980;2024-01-15T04:49:28;101697.34;;;1.90;83.16
57412;BME280;43247;52.828;-8.980;2024-01-15T04:50:29;101698.27;;;1.91;83.13
57412;BME280;43247;52.828;-8.980;2024-01-15T04:51:29;101699.67;;;1.91;83.14
57412;BME280;43247;52.828;-8.980;2024-01-15T04:52:29;101701.18;;;1.95;82.99
57412;BME280;43247;52.828;-8.980;2024-01-15T04:53:30;101700.51;;;1.97;82.96
57412;BME280;43247;52.828;-8.980;2024-01-15T04:54:30;101700.84;;;1.91;83.10
57412;BME280;43247;52.828;-8.980;2024-01-15T04:55:30;101700.36;;;1.92;83.06
57412;BME280;43247;52.828;-8.980;2024-01-15T04:56:31;101698.94;;;1.93;83.07
57412;BME280;43247;52.828;-8.980;2024-01-15T04:57:31;101697.05;;;1.90;83.15
57412;BME280;43247;52.828;-8.980;2024-01-15T04:58:31;101698.42;;;1.92;83.13
57412;BME280;43247;52.828;-8.980;2024-01-15T04:59:31;101697.83;;;1.87;83.25
57412;BME280;43247;52.828;-8.980;2024-01-15T05:00:31;101699.53;;;1.87;83.28
57412;BME280;43247;52.828;-8.980;2024-01-15T05:01:32;101701.38;;;1.99;82.93
57412;BME280;43247;52.828;-8.980;2024-01-15T05:02:32;101702.48;;;1.99;82.87
57412;BME280;43247;52.828;-8.980;2024-01-15T05:03:33;101702.55;;;1.93;83.08
57412;BME280;43247;52.828;-8.980;2024-01-15T05:04:33;101703.97;;;1.92;83.15
57412;BME280;43247;52.828;-8.980;2024-01-15T05:05:33;101704.93;;;1.92;83.20
57412;BME280;43247;52.828;-8.980;2024-01-15T05:06:33;101705.47;;;1.91;83.24
57412;BME280;43247;52.828;-8.980;2024-01-15T05:07:33;101704.79;;;1.90;83.23
57412;BME280;43247;52.828;-8.980;2024-01-15T05:08:34;101705.36;;;1.89;83.28
57412;BME280;43247;52.828;-8.980;2024-01-15T05:09:34;101707.33;;;1.82;83.53
57412;BME280;43247;52.828;-8.980;2024-01-15T05:10:35;101712.46;;;1.81;83.58
57412;BME280;43247;52.828;-8.980;2024-01-15T05:11:35;101715.59;;;1.77;83.75
57412;BME280;43247;52.828;-8.980;2024-01-15T05:12:36;101716.85;;;1.74;83.87
57412;BME280;43247;52.828;-8.980;2024-01-15T05:13:36;101716.57;;;1.72;83.92
57412;BME280;43247;52.828;-8.980;2024-01-15T05:14:36;101715.32;;;1.69;84.05
57412;BME280;43247;52.828;-8.980;2024-01-15T05:15:36;101714.66;;;1.69;84.07